Pleasanton, CA

10:59 PM PST on February 13, 2016 (GMT -0800)
Orloff Park | | Change Station
CLOSE
Current Station
Personal Weather Station
Location: Pleasanton, CA
Elevation: 352 ft
Nearby Weather Stations

Elev 352 ft 37.68 °N, 121.87 °W | Updated 1 second ago

Partly Cloudy
Partly Cloudy
50.4 °F
Feels Like 50.4 °F
N
0.0
Wind Variable Wind from North
Gusts 0.0 mph

Today
High -- | Low -- °F
--% Chance of Precip.
Yesterday
High -- | Low -- °F
Precip. -- in
Pressure 30.28 in
Visibility 10.0 miles
Clouds Clear
Dew Point 48 °F
Humidity 90%
Rainfall 0.00 in
Snow Depth Not available.
6:59 AM 5:44 PM
Waxing Crescent, 38% visible
METAR KLVK 140653Z AUTO 00000KT 10SM CLR 11/08 A3029 RMK AO2 SLP254 T01110078
Pressure 30.28 in
Visibility 10.0 miles
Clouds Clear
Dew Point 48 °F
Humidity 90%
Rainfall 0.00 in
Snow Depth Not available.
6:59 AM 5:44 PM
Waxing Crescent, 38% visible
METAR KLVK 140653Z AUTO 00000KT 10SM CLR 11/08 A3029 RMK AO2 SLP254 T01110078

10-Day Weather Forecast

Almanac

Astronomy

Feb. 13, 2016 Rise Set
Actual Time
Civil Twilight
Nautical Twilight
Astronomical Twilight
Moon
Length of Visible Light
Length of Day
Tomorrow will be .
, % of the Moon is Illuminated

Today's Extremes

State Highs State Lows

Community

WunderPhotos

Upload Photos

1,892,757 photos uploaded!

WunderBlog® & News

Nearby

Air Quality

  Air Quality AQ Index Pollutant
Not available.

Snow Depth

Station Depth Elevation

Earthquake Activity

City Distance Mag. Time & Date
Minimum magnitude displayed is 2.5.

Coastal Water Temperatures

Place Temperature

Stations

Nearby Weather Stations

Station Location Temp. Windchill Dew Point Humidity Wind Precip. Elev Updated Type
                   

Watches & Warnings

There are currently no watches in effect.